Time,TemperatureF,DewpointF,PressureIn,WindDirection,WindDirectionDegrees,WindSpeedMPH,WindSpeedGustMPH,Humidity,HourlyPrecipIn,Conditions,Clouds,dailyrainin,SolarRadiationWatts/m^2,SoftwareType,DateUTC
2013-03-04 00:00:00,50.0,43.1,30.09,North,5,5.0,11.0,77,0.00,,SCT055,0.01,0.00,VWS V14.00,2013-03-04 05:00:00,
2013-03-04 00:05:00,50.0,43.1,30.09,North,9,2.0,10.0,77,0.00,,SCT055,0.00,0.00,VWS V14.00,2013-03-04 05:05:00,
2013-03-04 00:10:00,50.0,43.1,30.09,North,355,10.0,13.0,77,0.00,,SCT055,0.00,0.00,VWS V14.00,2013-03-04 05:10:00,
2013-03-04 00:15:00,50.0,43.1,30.09,North,355,7.0,11.0,77,0.00,,SCT055,0.00,0.00,VWS V14.00,2013-03-04 05:15:00,
2013-03-04 00:20:00,50.0,43.1,30.09,North,5,8.0,12.0,77,0.00,,SCT055,0.00,0.00,VWS V14.00,2013-03-04 05:20:00,
2013-03-04 00:25:00,49.9,43.0,30.09,North,5,9.0,9.0,77,0.00,,SCT055,0.00,0.00,VWS V14.00,2013-03-04 05:25:00,
2013-03-04 00:30:00,49.8,42.9,30.09,NNE,15,0.0,11.0,77,0.00,,SCT055,0.00,0.00,VWS V14.00,2013-03-04 05:30:00,
2013-03-04 00:35:00,49.7,42.8,30.09,North,350,6.0,7.0,77,0.00,,SCT055,0.00,0.00,VWS V14.00,2013-03-04 05:35:00,
2013-03-04 00:40:00,49.6,42.7,30.09,North,5,9.0,11.0,77,0.00,,SCT055,0.00,0.00,VWS V14.00,2013-03-04 05:40:00,
2013-03-04 00:45:00,49.5,42.6,30.09,North,9,5.0,11.0,77,0.00,,SCT055,0.00,0.00,VWS V14.00,2013-03-04 05:45:00,
2013-03-04 00:50:00,49.4,42.2,30.09,North,9,11.0,13.0,76,0.00,,SCT055,0.00,0.00,VWS V14.00,2013-03-04 05:50:00,
2013-03-04 00:55:00,49.4,42.2,30.09,North,355,5.0,13.0,76,0.00,,SCT055,0.00,0.00,VWS V14.00,2013-03-04 05:55:00,
2013-03-04 01:00:00,49.4,42.2,30.09,North,349,13.0,13.0,76,0.00,,SCT055,0.00,0.00,VWS V14.00,2013-03-04 06:00:00,
2013-03-04 01:05:00,49.3,41.7,30.09,NNE,13,11.0,14.0,75,0.00,,SCT055,0.00,0.00,VWS V14.00,2013-03-04 06:05:00,
2013-03-04 01:10:00,49.3,41.7,30.10,NNE,22,9.0,12.0,75,0.00,,SCT055,0.00,0.00,VWS V14.00,2013-03-04 06:10:00,
2013-03-04 01:15:00,49.2,41.6,30.10,NNW,337,6.0,13.0,75,0.00,,SCT055,0.00,0.00,VWS V14.00,2013-03-04 06:15:00,
2013-03-04 01:20:00,49.0,41.4,30.10,North,360,3.0,15.0,75,0.00,,SCT055,0.00,0.00,VWS V14.00,2013-03-04 06:20:00,
2013-03-04 01:25:00,48.9,41.0,30.10,NNW,347,12.0,16.0,74,0.00,,SCT055,0.00,0.00,VWS V14.00,2013-03-04 06:25:00,
2013-03-04 01:30:00,48.7,41.1,30.10,North,5,6.0,9.0,75,0.00,,SCT055,0.00,0.00,VWS V14.00,2013-03-04 06:30:00,
2013-03-04 01:35:00,48.5,40.6,30.10,NNE,27,11.0,15.0,74,0.00,,SCT055,0.00,0.00,VWS V14.00,2013-03-04 06:35:00,
2013-03-04 01:40:00,48.3,40.4,30.10,North,355,6.0,11.0,74,0.00,,SCT055,0.00,0.00,VWS V14.00,2013-03-04 06:40:00,
2013-03-04 01:46:00,48.1,40.2,30.10,North,5,9.0,16.0,74,0.00,,SCT055,0.00,0.00,VWS V14.00,2013-03-04 06:46:00,
2013-03-04 01:51:00,48.0,40.1,30.09,NNE,12,9.0,13.0,74,0.00,,SCT055,0.00,0.00,VWS V14.00,2013-03-04 06:51:00,
2013-03-04 01:56:00,47.9,40.4,30.09,NNE,23,6.0,12.0,75,0.00,,SCT055,0.00,0.00,VWS V14.00,2013-03-04 06:56:00,
2013-03-04 02:01:00,47.7,39.8,30.09,North,349,7.0,11.0,74,0.00,,SCT055,0.00,0.00,VWS V14.00,2013-03-04 07:01:00,
2013-03-04 02:06:00,47.6,40.1,30.09,North,9,5.0,8.0,75,0.00,,SCT055,0.00,0.00,VWS V14.00,2013-03-04 07:06:00,
2013-03-04 02:11:00,47.5,40.0,30.09,North,5,1.0,7.0,75,0.00,,SCT055,0.00,0.00,VWS V14.00,2013-03-04 07:11:00,
2013-03-04 02:16:00,47.4,40.2,30.09,NNE,13,4.0,10.0,76,0.00,,SCT055,0.00,0.00,VWS V14.00,2013-03-04 07:16:00,
2013-03-04 02:21:00,47.2,40.0,30.09,NNE,28,9.0,10.0,76,0.00,,SCT055,0.00,0.00,VWS V14.00,2013-03-04 07:21:00,
2013-03-04 02:26:00,46.9,39.4,30.09,North,5,12.0,15.0,75,0.00,,SCT055,0.00,0.00,VWS V14.00,2013-03-04 07:26:00,
2013-03-04 02:31:00,46.8,39.3,30.08,NNE,18,7.0,12.0,75,0.00,,SCT055,0.00,0.00,VWS V14.00,2013-03-04 07:31:00,
2013-03-04 02:36:00,46.6,39.1,30.09,NNE,18,5.0,7.0,75,0.00,,SCT055,0.00,0.00,VWS V14.00,2013-03-04 07:36:00,
2013-03-04 02:41:00,46.4,38.9,30.09,NNE,23,7.0,11.0,75,0.00,,SCT055,0.00,0.00,VWS V14.00,2013-03-04 07:41:00,
2013-03-04 02:46:00,46.2,38.7,30.09,NNE,19,4.0,8.0,75,0.00,,SCT055,0.00,0.00,VWS V14.00,2013-03-04 07:46:00,
2013-03-04 02:51:00,46.1,38.3,30.08,NNE,15,7.0,11.0,74,0.00,,SCT055,0.00,0.00,VWS V14.00,2013-03-04 07:51:00,
2013-03-04 02:56:00,45.9,38.1,30.08,NNE,19,5.0,9.0,74,0.00,,SCT055,0.00,0.00,VWS V14.00,2013-03-04 07:56:00,
2013-03-04 03:01:00,45.8,38.0,30.08,NNE,31,4.0,7.0,74,0.00,,SCT055,0.00,0.00,VWS V14.00,2013-03-04 08:01:00,
2013-03-04 03:06:00,45.8,38.0,30.08,NNE,15,6.0,10.0,74,0.00,,SCT055,0.00,0.00,VWS V14.00,2013-03-04 08:06:00,
2013-03-04 03:11:00,45.7,37.9,30.08,NNE,19,3.0,6.0,74,0.00,,SCT055,0.00,0.00,VWS V14.00,2013-03-04 08:11:00,
2013-03-04 03:16:00,45.6,37.8,30.08,NNE,22,7.0,11.0,74,0.00,,SCT055,0.00,0.00,VWS V14.00,2013-03-04 08:16:00,
2013-03-04 03:21:00,45.6,37.8,30.08,North,5,12.0,12.0,74,0.00,,SCT055,0.00,0.00,VWS V14.00,2013-03-04 08:21:00,
2013-03-04 03:26:00,45.6,37.8,30.08,NNE,13,6.0,6.0,74,0.00,,SCT055,0.00,0.00,VWS V14.00,2013-03-04 08:26:00,
2013-03-04 03:31:00,45.7,37.9,30.08,NNE,22,6.0,9.0,74,0.00,,SCT055,0.00,0.00,VWS V14.00,2013-03-04 08:31:00,
2013-03-04 03:36:00,45.6,38.2,30.09,NNE,22,2.0,4.0,75,0.00,,SCT055,0.00,0.00,VWS V14.00,2013-03-04 08:36:00,
2013-03-04 03:41:00,45.5,37.7,30.09,NNE,16,3.0,7.0,74,0.00,,SCT055,0.00,0.00,VWS V14.00,2013-03-04 08:41:00,
2013-03-04 03:46:00,45.5,37.7,30.08,North,5,7.0,10.0,74,0.00,,SCT055,0.00,0.00,VWS V14.00,2013-03-04 08:46:00,
2013-03-04 03:51:00,45.4,37.6,30.08,North,5,3.0,4.0,74,0.00,,SCT055,0.00,0.00,VWS V14.00,2013-03-04 08:51:00,
2013-03-04 03:56:00,45.4,38.0,30.08,North,5,6.0,7.0,75,0.00,,SCT055,0.00,0.00,VWS V14.00,2013-03-04 08:56:00,
2013-03-04 04:01:00,45.3,37.5,30.08,NNE,14,3.0,5.0,74,0.00,,SCT055,0.00,0.00,VWS V14.00,2013-03-04 09:01:00,
2013-03-04 04:06:00,45.2,37.4,30.08,NNE,22,4.0,7.0,74,0.00,,SCT055,0.00,0.00,VWS V14.00,2013-03-04 09:06:00,
2013-03-04 04:11:00,45.1,37.7,30.09,NNE,22,5.0,7.0,75,0.00,,SCT055,0.00,0.00,VWS V14.00,2013-03-04 09:11:00,
2013-03-04 04:16:00,45.0,36.9,30.09,North,5,5.0,6.0,73,0.00,,SCT055,0.00,0.00,VWS V14.00,2013-03-04 09:16:00,
2013-03-04 04:21:00,45.0,37.2,30.09,North,5,0.0,2.0,74,0.00,,SCT055,0.00,0.00,VWS V14.00,2013-03-04 09:21:00,
2013-03-04 04:26:00,45.1,37.0,30.09,NNE,17,10.0,11.0,73,0.00,,SCT055,0.00,0.00,VWS V14.00,2013-03-04 09:26:00,
2013-03-04 04:31:00,45.1,36.3,30.09,North,5,3.0,8.0,71,0.00,,SCT055,0.00,0.00,VWS V14.00,2013-03-04 09:31:00,
2013-03-04 04:36:00,45.1,36.6,30.10,North,9,5.0,5.0,72,0.00,,SCT055,0.00,0.00,VWS V14.00,2013-03-04 09:36:00,
2013-03-04 04:41:00,45.0,36.5,30.10,North,9,5.0,11.0,72,0.00,,SCT055,0.00,0.00,VWS V14.00,2013-03-04 09:41:00,
2013-03-04 04:46:00,45.0,36.9,30.10,North,5,5.0,12.0,73,0.00,,SCT055,0.00,0.00,VWS V14.00,2013-03-04 09:46:00,
2013-03-04 04:51:00,45.0,36.9,30.11,North,9,6.0,9.0,73,0.00,,SCT055,0.00,0.00,VWS V14.00,2013-03-04 09:51:00,
2013-03-04 04:56:00,45.0,36.9,30.11,North,11,2.0,4.0,73,0.00,,SCT055,0.00,0.00,VWS V14.00,2013-03-04 09:56:00,
2013-03-04 05:01:00,45.0,36.9,30.11,North,9,5.0,8.0,73,0.00,,SCT055,0.00,0.00,VWS V14.00,2013-03-04 10:01:00,
2013-03-04 05:06:00,44.9,36.8,30.11,North,9,2.0,6.0,73,0.00,,SCT055,0.00,0.00,VWS V14.00,2013-03-04 10:06:00,
2013-03-04 05:11:00,44.9,37.5,30.12,North,9,0.0,3.0,75,0.00,,SCT055,0.00,0.00,VWS V14.00,2013-03-04 10:11:00,
2013-03-04 05:16:00,44.8,37.4,30.12,North,11,4.0,6.0,75,0.00,,SCT055,0.00,0.00,VWS V14.00,2013-03-04 10:16:00,
2013-03-04 05:21:00,44.7,37.3,30.12,North,5,4.0,7.0,75,0.00,,SCT055,0.00,0.00,VWS V14.00,2013-03-04 10:21:00,
2013-03-04 05:26:00,44.6,37.5,30.12,North,10,2.0,5.0,76,0.00,,SCT055,0.00,0.00,VWS V14.00,2013-03-04 10:26:00,
2013-03-04 05:31:00,44.5,37.4,30.12,North,10,0.0,3.0,76,0.00,,SCT055,0.00,0.00,VWS V14.00,2013-03-04 10:31:00,
2013-03-04 05:36:00,44.4,37.3,30.12,North,10,5.0,5.0,76,0.00,,SCT055,0.00,0.00,VWS V14.00,2013-03-04 10:36:00,
2013-03-04 05:41:00,44.3,37.6,30.12,North,9,4.0,5.0,77,0.00,,SCT055,0.00,0.00,VWS V14.00,2013-03-04 10:41:00,
2013-03-04 05:46:00,44.3,37.6,30.12,North,10,0.0,5.0,77,0.00,,SCT055,0.00,0.00,VWS V14.00,2013-03-04 10:46:00,
2013-03-04 05:51:00,44.3,37.6,30.12,North,9,5.0,5.0,77,0.00,,SCT055,0.00,0.00,VWS V14.00,2013-03-04 10:51:00,
2013-03-04 05:56:00,44.3,37.6,30.12,North,10,4.0,6.0,77,0.00,,SCT055,0.00,0.00,VWS V14.00,2013-03-04 10:56:00,
2013-03-04 06:01:00,44.2,37.5,30.12,North,11,0.0,4.0,77,0.00,,SCT055,0.00,0.00,VWS V14.00,2013-03-04 11:01:00,
2013-03-04 06:06:00,44.1,37.4,30.12,North,11,0.0,4.0,77,0.00,,SCT055,0.00,0.00,VWS V14.00,2013-03-04 11:06:00,
2013-03-04 06:11:00,44.1,37.4,30.12,North,11,4.0,5.0,77,0.00,,SCT055,0.00,0.00,VWS V14.00,2013-03-04 11:11:00,
2013-03-04 06:16:00,44.1,37.4,30.13,North,11,3.0,4.0,77,0.00,,SCT055,0.00,0.00,VWS V14.00,2013-03-04 11:16:00,
2013-03-04 06:21:00,44.1,37.4,30.13,North,11,2.0,6.0,77,0.00,,SCT055,0.00,0.00,VWS V14.00,2013-03-04 11:21:00,
2013-03-04 06:26:00,44.0,37.6,30.13,North,11,4.0,4.0,78,0.00,,SCT055,0.00,0.00,VWS V14.00,2013-03-04 11:26:00,
2013-03-04 06:31:00,44.0,37.6,30.14,North,11,0.0,0.0,78,0.00,,SCT055,0.00,0.00,VWS V14.00,2013-03-04 11:31:00,
2013-03-04 06:36:00,44.0,37.6,30.14,North,11,3.0,7.0,78,0.00,,SCT055,0.00,0.00,VWS V14.00,2013-03-04 11:36:00,
2013-03-04 06:41:00,44.0,37.6,30.14,North,11,3.0,5.0,78,0.00,,SCT055,0.00,0.00,VWS V14.00,2013-03-04 11:41:00,
2013-03-04 06:47:00,44.0,37.6,30.15,North,11,0.0,3.0,78,0.00,,SCT055,0.00,5.00,VWS V14.00,2013-03-04 11:47:00,
2013-03-04 06:52:00,43.9,37.5,30.14,NNE,12,6.0,6.0,78,0.00,,SCT055,0.00,53.00,VWS V14.00,2013-03-04 11:52:00,
2013-03-04 06:57:00,43.9,37.5,30.15,NNE,13,0.0,3.0,78,0.00,,SCT055,0.00,69.00,VWS V14.00,2013-03-04 11:57:00,
2013-03-04 07:02:00,44.0,37.3,30.15,NNE,12,0.0,1.0,77,0.00,,SCT055,0.00,84.00,VWS V14.00,2013-03-04 12:02:00,
2013-03-04 07:07:00,44.2,37.5,30.15,NNE,12,3.0,5.0,77,0.00,,SCT055,0.00,95.00,VWS V14.00,2013-03-04 12:07:00,
2013-03-04 07:12:00,44.3,37.6,30.15,North,11,0.0,3.0,77,0.00,,SCT055,0.00,98.00,VWS V14.00,2013-03-04 12:12:00,
2013-03-04 07:17:00,44.5,37.8,30.15,North,5,4.0,4.0,77,0.00,,SCT055,0.00,88.00,VWS V14.00,2013-03-04 12:17:00,
2013-03-04 07:22:00,44.7,37.6,30.15,North,10,2.0,4.0,76,0.00,,SCT055,0.00,54.00,VWS V14.00,2013-03-04 12:22:00,
2013-03-04 07:27:00,45.0,37.9,30.16,NNE,13,2.0,5.0,76,0.00,,SCT055,0.00,49.00,VWS V14.00,2013-03-04 12:27:00,
2013-03-04 07:32:00,45.1,37.3,30.15,NNE,23,5.0,13.0,74,0.00,,SCT055,0.00,58.00,VWS V14.00,2013-03-04 12:32:00,
2013-03-04 07:37:00,45.2,37.1,30.15,NNE,28,7.0,12.0,73,0.00,,CLR,0.00,69.00,VWS V14.00,2013-03-04 12:37:00,
2013-03-04 07:42:00,45.4,36.9,30.15,NNE,17,6.0,7.0,72,0.00,,CLR,0.00,81.00,VWS V14.00,2013-03-04 12:42:00,
2013-03-04 07:47:00,45.6,36.8,30.16,NNE,22,6.0,7.0,71,0.00,,CLR,0.00,97.00,VWS V14.00,2013-03-04 12:47:00,
2013-03-04 07:52:00,45.9,37.0,30.16,NNE,18,4.0,10.0,71,0.00,,CLR,0.00,113.00,VWS V14.00,2013-03-04 12:52:00,
2013-03-04 07:57:00,46.3,37.4,30.16,NNE,22,4.0,5.0,71,0.00,,CLR,0.00,120.00,VWS V14.00,2013-03-04 12:57:00,
2013-03-04 08:02:00,46.6,37.0,30.16,North,5,6.0,10.0,69,0.00,,CLR,0.00,125.00,VWS V14.00,2013-03-04 13:02:00,
2013-03-04 08:07:00,47.0,36.6,30.17,NNE,13,5.0,10.0,67,0.00,,CLR,0.00,128.00,VWS V14.00,2013-03-04 13:07:00,
2013-03-04 08:12:00,47.2,36.8,30.17,NNE,22,6.0,11.0,67,0.00,,CLR,0.00,134.00,VWS V14.00,2013-03-04 13:12:00,
2013-03-04 08:17:00,47.6,36.4,30.17,NNE,32,8.0,10.0,65,0.00,,CLR,0.00,137.00,VWS V14.00,2013-03-04 13:17:00,
2013-03-04 08:22:00,48.1,36.1,30.17,NNE,30,7.0,13.0,63,0.00,,CLR,0.00,141.00,VWS V14.00,2013-03-04 13:22:00,
2013-03-04 08:27:00,48.2,35.8,30.17,NE,35,8.0,12.0,62,0.00,,CLR,0.00,142.00,VWS V14.00,2013-03-04 13:27:00,
2013-03-04 08:32:00,48.5,36.1,30.17,NE,38,9.0,11.0,62,0.00,,CLR,0.00,146.00,VWS V14.00,2013-03-04 13:32:00,
2013-03-04 08:37:00,48.8,36.4,30.17,NE,41,5.0,10.0,62,0.00,,CLR,0.00,148.00,VWS V14.00,2013-03-04 13:37:00,
2013-03-04 08:42:00,49.0,36.2,30.17,NE,34,6.0,16.0,61,0.00,,CLR,0.00,151.00,VWS V14.00,2013-03-04 13:42:00,
2013-03-04 08:47:00,49.3,36.0,30.17,NNE,22,6.0,12.0,60,0.00,,CLR,0.00,151.00,VWS V14.00,2013-03-04 13:47:00,
2013-03-04 08:52:00,49.5,36.2,30.17,NNE,28,4.0,13.0,60,0.00,,CLR,0.00,153.00,VWS V14.00,2013-03-04 13:52:00,
2013-03-04 08:57:00,49.9,37.0,30.17,North,5,9.0,12.0,61,0.00,,CLR,0.00,155.00,VWS V14.00,2013-03-04 13:57:00,
2013-03-04 09:02:00,50.3,37.4,30.17,NE,45,7.0,11.0,61,0.00,,CLR,0.00,155.00,VWS V14.00,2013-03-04 14:02:00,
2013-03-04 09:07:00,50.5,36.7,30.17,North,360,8.0,14.0,59,0.00,,CLR,0.00,155.00,VWS V14.00,2013-03-04 14:07:00,
2013-03-04 09:12:00,50.7,37.3,30.17,NE,44,11.0,13.0,60,0.00,,CLR,0.00,155.00,VWS V14.00,2013-03-04 14:12:00,
2013-03-04 09:17:00,50.7,36.5,30.17,ENE,61,11.0,15.0,58,0.00,,CLR,0.00,155.00,VWS V14.00,2013-03-04 14:17:00,
2013-03-04 09:22:00,50.6,36.4,30.17,NE,54,14.0,14.0,58,0.00,,CLR,0.00,155.00,VWS V14.00,2013-03-04 14:22:00,
2013-03-04 09:27:00,51.1,37.7,30.17,NNE,27,6.0,14.0,60,0.00,,CLR,0.00,155.00,VWS V14.00,2013-03-04 14:27:00,
2013-03-04 09:32:00,51.4,37.1,30.18,NE,35,7.0,14.0,58,0.00,,CLR,0.00,155.00,VWS V14.00,2013-03-04 14:32:00,
2013-03-04 09:37:00,51.4,37.1,30.17,NNE,26,7.0,10.0,58,0.00,,CLR,0.00,155.00,VWS V14.00,2013-03-04 14:37:00,
2013-03-04 09:42:00,51.7,37.4,30.17,NE,41,6.0,7.0,58,0.00,,CLR,0.00,155.00,VWS V14.00,2013-03-04 14:42:00,
2013-03-04 09:47:00,52.1,37.8,30.17,NE,47,5.0,14.0,58,0.00,,CLR,0.00,153.00,VWS V14.00,2013-03-04 14:47:00,
2013-03-04 09:52:00,52.3,38.0,30.18,NNE,24,7.0,11.0,58,0.00,,CLR,0.00,153.00,VWS V14.00,2013-03-04 14:52:00,
2013-03-04 09:57:00,52.3,37.5,30.17,NE,40,11.0,11.0,57,0.00,,CLR,0.00,153.00,VWS V14.00,2013-03-04 14:57:00,
2013-03-04 10:02:00,52.6,38.3,30.17,NE,44,7.0,10.0,58,0.00,,CLR,0.00,153.00,VWS V14.00,2013-03-04 15:02:00,
2013-03-04 10:07:00,53.0,38.2,30.17,NE,50,9.0,12.0,57,0.00,,CLR,0.00,151.00,VWS V14.00,2013-03-04 15:07:00,
2013-03-04 10:12:00,53.2,37.9,30.17,North,9,4.0,12.0,56,0.00,,CLR,0.00,151.00,VWS V14.00,2013-03-04 15:12:00,
2013-03-04 10:17:00,53.6,37.8,30.17,North,9,2.0,9.0,55,0.00,,CLR,0.00,151.00,VWS V14.00,2013-03-04 15:17:00,
2013-03-04 10:22:00,53.7,37.5,30.17,North,9,13.0,15.0,54,0.00,,CLR,0.00,151.00,VWS V14.00,2013-03-04 15:22:00,
2013-03-04 10:27:00,53.7,37.5,30.17,North,5,5.0,13.0,54,0.00,,CLR,0.00,151.00,VWS V14.00,2013-03-04 15:27:00,
2013-03-04 10:33:00,54.2,37.5,30.17,NNE,25,10.0,14.0,53,0.00,,CLR,0.00,151.00,VWS V14.00,2013-03-04 15:33:00,
2013-03-04 10:37:00,54.4,37.6,30.17,North,10,7.0,11.0,53,0.00,,CLR,0.00,151.00,VWS V14.00,2013-03-04 15:37:00,
2013-03-04 10:43:00,54.6,37.3,30.17,NNW,344,5.0,12.0,52,0.00,,CLR,0.00,149.00,VWS V14.00,2013-03-04 15:43:00,
2013-03-04 10:48:00,54.9,37.1,30.17,NNE,19,12.0,15.0,51,0.00,,CLR,0.00,148.00,VWS V14.00,2013-03-04 15:48:00,
2013-03-04 10:53:00,54.7,36.9,30.17,NNE,27,11.0,13.0,51,0.00,,CLR,0.00,148.00,VWS V14.00,2013-03-04 15:53:00,
2013-03-04 10:58:00,54.7,36.4,30.17,NE,37,9.0,16.0,50,0.00,,CLR,0.00,148.00,VWS V14.00,2013-03-04 15:58:00,
2013-03-04 11:03:00,54.8,37.0,30.16,NE,48,9.0,16.0,51,0.00,,CLR,0.00,146.00,VWS V14.00,2013-03-04 16:03:00,
2013-03-04 11:08:00,55.2,36.9,30.16,North,355,7.0,10.0,50,0.00,,CLR,0.00,146.00,VWS V14.00,2013-03-04 16:08:00,
2013-03-04 11:13:00,55.7,37.9,30.16,NNE,17,6.0,12.0,51,0.00,,CLR,0.00,144.00,VWS V14.00,2013-03-04 16:13:00,
2013-03-04 11:18:00,56.0,37.1,30.16,NE,48,5.0,12.0,49,0.00,,CLR,0.00,142.00,VWS V14.00,2013-03-04 16:18:00,
2013-03-04 11:23:00,55.9,37.0,30.16,NNE,17,6.0,10.0,49,0.00,,CLR,0.00,141.00,VWS V14.00,2013-03-04 16:23:00,
2013-03-04 11:28:00,55.6,36.2,30.16,NE,51,3.0,4.0,48,0.00,,CLR,0.00,139.00,VWS V14.00,2013-03-04 16:28:00,
2013-03-04 11:33:00,55.9,37.5,30.16,NNE,21,6.0,6.0,50,0.00,,CLR,0.00,139.00,VWS V14.00,2013-03-04 16:33:00,
2013-03-04 11:38:00,56.3,37.4,30.16,NNE,20,6.0,6.0,49,0.00,,CLR,0.00,139.00,VWS V14.00,2013-03-04 16:38:00,
2013-03-04 11:43:00,56.4,37.0,30.16,North,360,4.0,4.0,48,0.00,,CLR,0.00,141.00,VWS V14.00,2013-03-04 16:43:00,
2013-03-04 11:48:00,56.7,36.2,30.15,ENE,68,6.0,10.0,46,0.00,,CLR,0.00,142.00,VWS V14.00,2013-03-04 16:48:00,
2013-03-04 11:53:00,56.3,37.4,30.15,ENE,69,1.0,1.0,49,0.00,,CLR,0.00,144.00,VWS V14.00,2013-03-04 16:53:00,
2013-03-04 11:58:00,57.0,37.5,30.15,North,5,3.0,12.0,48,0.00,,CLR,0.00,146.00,VWS V14.00,2013-03-04 16:58:00,
2013-03-04 12:03:00,56.9,36.3,30.15,NNE,24,3.0,6.0,46,0.00,,CLR,0.00,146.00,VWS V14.00,2013-03-04 17:03:00,
2013-03-04 12:08:00,57.3,36.7,30.15,NNE,23,0.0,5.0,46,0.00,,CLR,0.00,148.00,VWS V14.00,2013-03-04 17:08:00,
2013-03-04 12:13:00,57.7,37.6,30.14,North,11,5.0,6.0,47,0.00,,CLR,0.00,149.00,VWS V14.00,2013-03-04 17:13:00,
2013-03-04 12:18:00,57.8,37.2,30.14,NNW,346,4.0,4.0,46,0.00,,CLR,0.00,149.00,VWS V14.00,2013-03-04 17:18:00,
2013-03-04 12:23:00,58.1,37.5,30.14,NNW,344,0.0,3.0,46,0.00,,CLR,0.00,151.00,VWS V14.00,2013-03-04 17:23:00,
2013-03-04 12:28:00,58.7,37.4,30.13,NNW,339,3.0,5.0,45,0.00,,CLR,0.00,151.00,VWS V14.00,2013-03-04 17:28:00,
2013-03-04 12:33:00,58.7,37.4,30.13,North,5,1.0,3.0,45,0.00,,CLR,0.00,151.00,VWS V14.00,2013-03-04 17:33:00,
2013-03-04 12:38:00,58.9,37.6,30.13,North,5,1.0,5.0,45,0.00,,CLR,0.00,153.00,VWS V14.00,2013-03-04 17:38:00,
2013-03-04 12:43:00,59.2,37.9,30.12,NNE,26,3.0,4.0,45,0.00,,CLR,0.00,153.00,VWS V14.00,2013-03-04 17:43:00,
2013-03-04 12:48:00,59.2,37.3,30.12,NNE,33,3.0,6.0,44,0.00,,CLR,0.00,153.00,VWS V14.00,2013-03-04 17:48:00,
2013-03-04 12:53:00,59.3,38.0,30.12,NNE,23,0.0,5.0,45,0.00,,CLR,0.00,155.00,VWS V14.00,2013-03-04 17:53:00,
2013-03-04 12:58:00,59.8,37.3,30.12,NNE,27,6.0,9.0,43,0.00,,CLR,0.00,153.00,VWS V14.00,2013-03-04 17:58:00,
2013-03-04 13:03:00,59.9,36.2,30.12,NNE,31,0.0,5.0,41,0.00,,CLR,0.00,155.00,VWS V14.00,2013-03-04 18:03:00,
2013-03-04 13:08:00,60.0,38.0,30.11,NE,34,4.0,5.0,44,0.00,,CLR,0.00,155.00,VWS V14.00,2013-03-04 18:08:00,
2013-03-04 13:13:00,60.3,37.1,30.12,NE,35,3.0,5.0,42,0.00,,CLR,0.00,155.00,VWS V14.00,2013-03-04 18:13:00,
2013-03-04 13:18:00,60.4,37.8,30.12,NE,35,4.0,4.0,43,0.00,,CLR,0.00,153.00,VWS V14.00,2013-03-04 18:18:00,
2013-03-04 13:23:00,60.7,37.5,30.11,NE,35,0.0,1.0,42,0.00,,CLR,0.00,153.00,VWS V14.00,2013-03-04 18:23:00,
2013-03-04 13:28:00,61.2,38.0,30.11,NE,34,4.0,5.0,42,0.00,,CLR,0.00,151.00,VWS V14.00,2013-03-04 18:28:00,
2013-03-04 13:29:00,61.3,38.0,30.11,NNE,30,6.0,6.0,42,0.00,,CLR,0.00,151.00,VWS V14.00,2013-03-04 18:29:00,
2013-03-04 13:34:00,61.3,39.2,30.11,NNE,22,3.0,3.0,44,0.00,,CLR,0.00,151.00,VWS V14.00,2013-03-04 18:34:00,
2013-03-04 13:40:00,61.2,38.0,30.11,NNE,22,0.0,3.0,42,0.00,,CLR,0.00,151.00,VWS V14.00,2013-03-04 18:40:00,
2013-03-04 13:45:00,61.4,38.7,30.11,NNE,22,0.0,2.0,43,0.00,,CLR,0.00,149.00,VWS V14.00,2013-03-04 18:45:00,
2013-03-04 13:50:00,62.0,39.3,30.11,NNE,22,0.0,2.0,43,0.00,,CLR,0.00,148.00,VWS V14.00,2013-03-04 18:50:00,
2013-03-04 13:55:00,62.7,38.7,30.10,NE,39,6.0,6.0,41,0.00,,CLR,0.00,148.00,VWS V14.00,2013-03-04 18:55:00,
2013-03-04 14:00:00,62.3,38.3,30.10,NE,42,0.0,0.0,41,0.00,,CLR,0.00,146.00,VWS V14.00,2013-03-04 19:00:00,
2013-03-04 14:05:00,63.0,39.6,30.10,NE,42,0.0,1.0,42,0.00,,CLR,0.00,144.00,VWS V14.00,2013-03-04 19:05:00,
2013-03-04 14:10:00,63.4,38.7,30.10,ENE,75,2.0,5.0,40,0.00,,CLR,0.00,142.00,VWS V14.00,2013-03-04 19:10:00,
2013-03-04 14:15:00,63.5,38.8,30.10,ENE,75,2.0,3.0,40,0.00,,CLR,0.00,141.00,VWS V14.00,2013-03-04 19:15:00,
2013-03-04 14:20:00,63.4,38.7,30.09,ENE,59,5.0,6.0,40,0.00,,CLR,0.00,139.00,VWS V14.00,2013-03-04 19:20:00,
2013-03-04 14:25:00,63.2,38.5,30.09,NE,53,0.0,6.0,40,0.00,,CLR,0.00,139.00,VWS V14.00,2013-03-04 19:25:00,
2013-03-04 14:30:00,63.3,38.0,30.09,NE,48,0.0,4.0,39,0.00,,CLR,0.00,137.00,VWS V14.00,2013-03-04 19:30:00,
2013-03-04 14:35:00,63.8,39.0,30.09,NE,48,2.0,3.0,40,0.00,,CLR,0.00,135.00,VWS V14.00,2013-03-04 19:35:00,
2013-03-04 14:40:00,64.4,38.9,30.09,NE,44,4.0,4.0,39,0.00,,CLR,0.00,134.00,VWS V14.00,2013-03-04 19:40:00,
2013-03-04 14:45:00,64.2,37.4,30.09,NE,46,0.0,3.0,37,0.00,,CLR,0.00,132.00,VWS V14.00,2013-03-04 19:45:00,
2013-03-04 14:50:00,64.3,38.2,30.09,NE,44,0.0,2.0,38,0.00,,CLR,0.00,130.00,VWS V14.00,2013-03-04 19:50:00,
2013-03-04 14:55:00,64.8,38.6,30.09,NE,38,1.0,3.0,38,0.00,,CLR,0.00,128.00,VWS V14.00,2013-03-04 19:55:00,
2013-03-04 15:00:00,65.3,37.7,30.09,NNE,24,0.0,1.0,36,0.00,,CLR,0.00,127.00,VWS V14.00,2013-03-04 20:00:00,
2013-03-04 15:05:00,65.9,37.5,30.09,NNE,24,2.0,4.0,35,0.00,,CLR,0.00,125.00,VWS V14.00,2013-03-04 20:05:00,
2013-03-04 15:10:00,65.7,37.3,30.09,NNE,24,0.0,3.0,35,0.00,,CLR,0.00,123.00,VWS V14.00,2013-03-04 20:10:00,
2013-03-04 15:15:00,65.6,38.0,30.08,NNE,24,3.0,5.0,36,0.00,,CLR,0.00,120.00,VWS V14.00,2013-03-04 20:15:00,
2013-03-04 15:20:00,65.3,37.0,30.09,NNE,19,5.0,7.0,35,0.00,,CLR,0.00,118.00,VWS V14.00,2013-03-04 20:20:00,
2013-03-04 15:25:00,65.1,36.8,30.08,NNE,22,0.0,0.0,35,0.00,,CLR,0.00,116.00,VWS V14.00,2013-03-04 20:25:00,
2013-03-04 15:30:00,65.1,35.3,30.09,NNE,22,0.0,1.0,33,0.00,,CLR,0.00,113.00,VWS V14.00,2013-03-04 20:30:00,
2013-03-04 15:35:00,65.6,36.5,30.08,NNE,23,0.0,1.0,34,0.00,,SKC,0.00,111.00,VWS V14.00,2013-03-04 20:35:00,
2013-03-04 15:40:00,66.2,37.0,30.08,NNE,24,5.0,5.0,34,0.00,,SKC,0.00,107.00,VWS V14.00,2013-03-04 20:40:00,
2013-03-04 15:45:00,66.2,37.0,30.08,East,84,4.0,5.0,34,0.00,,SKC,0.00,105.00,VWS V14.00,2013-03-04 20:45:00,
2013-03-04 15:50:00,65.8,38.8,30.08,ENE,77,0.0,3.0,37,0.00,,SKC,0.00,104.00,VWS V14.00,2013-03-04 20:50:00,
2013-03-04 15:55:00,65.9,40.9,30.08,East,83,0.0,4.0,40,0.00,,SKC,0.00,100.00,VWS V14.00,2013-03-04 20:55:00,
2013-03-04 16:01:00,65.7,39.4,30.08,East,82,3.0,3.0,38,0.00,,SKC,0.00,97.00,VWS V14.00,2013-03-04 21:01:00,
2013-03-04 16:06:00,65.4,39.8,30.08,ENE,78,5.0,6.0,39,0.00,,SKC,0.00,95.00,VWS V14.00,2013-03-04 21:06:00,
2013-03-04 16:11:00,65.3,40.4,30.08,East,85,0.0,6.0,40,0.00,,SKC,0.00,95.00,VWS V14.00,2013-03-04 21:11:00,
2013-03-04 16:16:00,65.3,41.0,30.09,East,86,4.0,7.0,41,0.00,,SKC,0.00,95.00,VWS V14.00,2013-03-04 21:16:00,
2013-03-04 16:21:00,65.3,40.4,30.08,ENE,76,7.0,8.0,40,0.00,,SKC,0.00,95.00,VWS V14.00,2013-03-04 21:21:00,
2013-03-04 16:26:00,65.1,40.2,30.09,East,88,1.0,8.0,40,0.00,,SKC,0.00,93.00,VWS V14.00,2013-03-04 21:26:00,
2013-03-04 16:31:00,65.0,40.8,30.09,East,93,5.0,9.0,41,0.00,,SKC,0.00,91.00,VWS V14.00,2013-03-04 21:31:00,
2013-03-04 16:36:00,65.0,42.6,30.09,East,97,4.0,6.0,44,0.00,,SKC,0.00,90.00,VWS V14.00,2013-03-04 21:36:00,
2013-03-04 16:41:00,64.9,42.5,30.08,ESE,102,3.0,7.0,44,0.00,,SKC,0.00,88.00,VWS V14.00,2013-03-04 21:41:00,
2013-03-04 16:46:00,64.9,43.1,30.09,ESE,102,4.0,6.0,45,0.00,,SKC,0.00,88.00,VWS V14.00,2013-03-04 21:46:00,
2013-03-04 16:51:00,64.8,41.8,30.08,East,101,3.0,5.0,43,0.00,,SKC,0.00,86.00,VWS V14.00,2013-03-04 21:51:00,
2013-03-04 16:56:00,64.8,43.6,30.08,ESE,102,4.0,5.0,46,0.00,,SKC,0.00,84.00,VWS V14.00,2013-03-04 21:56:00,
2013-03-04 17:01:00,64.5,42.7,30.09,East,91,5.0,10.0,45,0.00,,SKC,0.00,83.00,VWS V14.00,2013-03-04 22:01:00,
2013-03-04 17:06:00,64.4,43.2,30.08,East,93,6.0,7.0,46,0.00,,SKC,0.00,79.00,VWS V14.00,2013-03-04 22:06:00,
2013-03-04 17:11:00,64.3,42.5,30.08,East,93,6.0,10.0,45,0.00,,SKC,0.00,76.00,VWS V14.00,2013-03-04 22:11:00,
2013-03-04 17:16:00,64.3,43.1,30.09,East,94,2.0,5.0,46,0.00,,SKC,0.00,72.00,VWS V14.00,2013-03-04 22:16:00,
2013-03-04 17:21:00,64.2,42.4,30.09,East,92,7.0,9.0,45,0.00,,SKC,0.00,69.00,VWS V14.00,2013-03-04 22:21:00,
2013-03-04 17:26:00,63.8,42.6,30.09,East,94,4.0,7.0,46,0.00,,SKC,0.00,65.00,VWS V14.00,2013-03-04 22:26:00,
2013-03-04 17:31:00,63.7,42.0,30.09,ESE,104,7.0,11.0,45,0.00,,SKC,0.00,62.00,VWS V14.00,2013-03-04 22:31:00,
2013-03-04 17:36:00,63.6,42.5,30.09,East,96,6.0,6.0,46,0.00,,SKC,0.00,60.00,VWS V14.00,2013-03-04 22:36:00,
2013-03-04 17:42:00,63.3,42.2,30.09,East,99,8.0,10.0,46,0.00,,SKC,0.00,54.00,VWS V14.00,2013-03-04 22:42:00,
2013-03-04 17:47:00,63.1,41.4,30.09,East,88,5.0,11.0,45,0.00,,SKC,0.00,49.00,VWS V14.00,2013-03-04 22:47:00,
2013-03-04 17:52:00,62.8,40.6,30.10,ESE,102,10.0,10.0,44,0.00,,SKC,0.00,44.00,VWS V14.00,2013-03-04 22:52:00,
2013-03-04 17:57:00,62.6,40.4,30.10,East,101,1.0,5.0,44,0.00,,SKC,0.00,39.00,VWS V14.00,2013-03-04 22:57:00,
2013-03-04 18:02:00,62.5,40.9,30.10,East,101,4.0,5.0,45,0.00,,SKC,0.00,32.00,VWS V14.00,2013-03-04 23:02:00,
2013-03-04 18:07:00,62.3,39.5,30.10,ESE,103,4.0,7.0,43,0.00,,SKC,0.00,23.00,VWS V14.00,2013-03-04 23:07:00,
2013-03-04 18:12:00,62.1,39.4,30.10,ESE,103,0.0,5.0,43,0.00,,SKC,0.00,7.00,VWS V14.00,2013-03-04 23:12:00,
2013-03-04 18:17:00,61.9,37.3,30.10,ESE,102,4.0,6.0,40,0.00,,SKC,0.00,5.00,VWS V14.00,2013-03-04 23:17:00,
2013-03-04 18:22:00,61.7,35.2,30.10,East,101,3.0,6.0,37,0.00,,SKC,0.00,0.00,VWS V14.00,2013-03-04 23:22:00,
2013-03-04 18:27:00,61.5,35.0,30.11,ESE,102,4.0,7.0,37,0.00,,SKC,0.00,0.00,VWS V14.00,2013-03-04 23:27:00,
2013-03-04 18:32:00,61.3,32.7,30.10,ESE,103,2.0,7.0,34,0.00,,SKC,0.00,0.00,VWS V14.00,2013-03-04 23:32:00,
2013-03-04 18:37:00,61.1,32.5,30.11,ESE,103,4.0,4.0,34,0.00,,SKC,0.00,0.00,VWS V14.00,2013-03-04 23:37:00,
2013-03-04 18:42:00,60.9,34.5,30.11,ESE,103,0.0,2.0,37,0.00,,SKC,0.00,0.00,VWS V14.00,2013-03-04 23:42:00,
2013-03-04 18:47:00,60.7,33.6,30.11,ESE,103,2.0,4.0,36,0.00,,SKC,0.00,0.00,VWS V14.00,2013-03-04 23:47:00,
2013-03-04 18:52:00,60.5,34.8,30.11,ESE,103,2.0,4.0,38,0.00,,SKC,0.00,0.00,VWS V14.00,2013-03-04 23:52:00,
2013-03-04 18:57:00,60.3,34.6,30.11,ESE,103,0.0,0.0,38,0.00,,SKC,0.00,0.00,VWS V14.00,2013-03-04 23:57:00,
2013-03-04 19:02:00,60.2,35.8,30.11,ESE,103,0.0,0.0,40,0.00,,SKC,0.00,0.00,VWS V14.00,2013-03-05 00:02:00,
2013-03-04 19:07:00,60.0,35.0,30.12,ESE,103,0.0,0.0,39,0.00,,SKC,0.00,0.00,VWS V14.00,2013-03-05 00:07:00,
2013-03-04 19:12:00,59.8,35.5,30.11,ESE,103,0.0,0.0,40,0.00,,SKC,0.00,0.00,VWS V14.00,2013-03-05 00:12:00,
2013-03-04 19:17:00,59.6,37.1,30.11,ESE,103,0.0,0.0,43,0.00,,SKC,0.00,0.00,VWS V14.00,2013-03-05 00:17:00,
2013-03-04 19:22:00,59.4,36.9,30.11,ESE,103,0.0,0.0,43,0.00,,SKC,0.00,0.00,VWS V14.00,2013-03-05 00:22:00,
2013-03-04 19:27:00,59.1,37.2,30.11,ESE,103,0.0,0.0,44,0.00,,SKC,0.00,0.00,VWS V14.00,2013-03-05 00:27:00,
2013-03-04 19:32:00,58.8,36.4,30.11,ESE,103,0.0,0.0,43,0.00,,SKC,0.00,0.00,VWS V14.00,2013-03-05 00:32:00,
2013-03-04 19:37:00,58.7,37.4,30.11,ESE,103,0.0,0.0,45,0.00,,SKC,0.00,0.00,VWS V14.00,2013-03-05 00:37:00,
2013-03-04 19:42:00,58.4,37.2,30.11,ESE,103,0.0,0.0,45,0.00,,SKC,0.00,0.00,VWS V14.00,2013-03-05 00:42:00,
2013-03-04 19:47:00,58.2,37.0,30.11,ESE,103,0.0,0.0,45,0.00,,SKC,0.00,0.00,VWS V14.00,2013-03-05 00:47:00,
2013-03-04 19:52:00,58.0,37.4,30.12,ESE,103,0.0,1.0,46,0.00,,SKC,0.00,0.00,VWS V14.00,2013-03-05 00:52:00,
2013-03-04 19:57:00,57.9,37.3,30.12,ESE,103,0.0,1.0,46,0.00,,SKC,0.00,0.00,VWS V14.00,2013-03-05 00:57:00,
2013-03-04 20:02:00,57.8,37.2,30.12,ESE,103,0.0,1.0,46,0.00,,SKC,0.00,0.00,VWS V14.00,2013-03-05 01:02:00,
2013-03-04 20:07:00,57.7,37.6,30.12,ESE,103,0.0,0.0,47,0.00,,SKC,0.00,0.00,VWS V14.00,2013-03-05 01:07:00,
2013-03-04 20:12:00,57.6,38.1,30.13,ESE,103,0.0,0.0,48,0.00,,SKC,0.00,0.00,VWS V14.00,2013-03-05 01:12:00,
2013-03-04 20:17:00,57.4,38.4,30.13,ESE,103,0.0,1.0,49,0.00,,SKC,0.00,0.00,VWS V14.00,2013-03-05 01:17:00,
2013-03-04 20:22:00,57.3,37.8,30.13,ESE,103,0.0,2.0,48,0.00,,SKC,0.00,0.00,VWS V14.00,2013-03-05 01:22:00,
2013-03-04 20:27:00,57.2,39.2,30.13,ESE,103,0.0,1.0,51,0.00,,SKC,0.00,0.00,VWS V14.00,2013-03-05 01:27:00,
2013-03-04 20:32:00,57.1,39.2,30.13,ESE,103,0.0,0.0,51,0.00,,SKC,0.00,0.00,VWS V14.00,2013-03-05 01:32:00,
2013-03-04 20:37:00,57.0,39.6,30.13,ESE,103,0.0,0.0,52,0.00,,SKC,0.00,0.00,VWS V14.00,2013-03-05 01:37:00,
2013-03-04 20:42:00,56.9,40.4,30.14,ESE,103,0.0,0.0,54,0.00,,SKC,0.00,0.00,VWS V14.00,2013-03-05 01:42:00,
2013-03-04 20:47:00,56.8,40.8,30.14,ESE,103,0.0,0.0,55,0.00,,SKC,0.00,0.00,VWS V14.00,2013-03-05 01:47:00,
2013-03-04 20:52:00,56.6,41.6,30.14,ESE,103,0.0,0.0,57,0.00,,SKC,0.00,0.00,VWS V14.00,2013-03-05 01:52:00,
2013-03-04 20:57:00,56.4,42.3,30.14,ESE,103,0.0,0.0,59,0.00,,SKC,0.00,0.00,VWS V14.00,2013-03-05 01:57:00,
2013-03-04 21:02:00,55.9,41.3,30.14,ESE,103,0.0,0.0,58,0.00,,SKC,0.00,0.00,VWS V14.00,2013-03-05 02:02:00,
2013-03-04 21:07:00,55.3,41.2,30.14,ESE,103,0.0,0.0,59,0.00,,SKC,0.00,0.00,VWS V14.00,2013-03-05 02:07:00,
2013-03-04 21:12:00,54.9,41.7,30.14,ESE,103,0.0,0.0,61,0.00,,SKC,0.00,0.00,VWS V14.00,2013-03-05 02:12:00,
2013-03-04 21:17:00,54.5,41.3,30.14,ESE,103,0.0,0.0,61,0.00,,SKC,0.00,0.00,VWS V14.00,2013-03-05 02:17:00,
2013-03-04 21:22:00,54.4,43.3,30.14,ESE,103,0.0,0.0,66,0.00,,SKC,0.00,0.00,VWS V14.00,2013-03-05 02:22:00,
2013-03-04 21:27:00,54.1,43.8,30.14,ESE,103,0.0,0.0,68,0.00,,SKC,0.00,0.00,VWS V14.00,2013-03-05 02:27:00,
2013-03-04 21:32:00,53.9,43.2,30.14,ESE,103,0.0,0.0,67,0.00,,CLR,0.00,0.00,VWS V14.00,2013-03-05 02:32:00,
2013-03-04 21:38:00,53.7,43.4,30.14,ESE,103,0.0,0.0,68,0.00,,CLR,0.00,0.00,VWS V14.00,2013-03-05 02:38:00,
2013-03-04 21:43:00,53.7,43.8,30.14,ESE,103,0.0,0.0,69,0.00,,CLR,0.00,0.00,VWS V14.00,2013-03-05 02:43:00,
2013-03-04 21:48:00,53.6,43.7,30.14,ESE,103,0.0,0.0,69,0.00,,CLR,0.00,0.00,VWS V14.00,2013-03-05 02:48:00,
2013-03-04 21:53:00,53.6,43.3,30.14,ESE,103,0.0,0.0,68,0.00,,CLR,0.00,0.00,VWS V14.00,2013-03-05 02:53:00,
2013-03-04 21:58:00,53.5,43.2,30.14,ESE,103,0.0,0.0,68,0.00,,CLR,0.00,0.00,VWS V14.00,2013-03-05 02:58:00,
2013-03-04 22:03:00,53.4,43.1,30.14,ESE,103,0.0,0.0,68,0.00,,CLR,0.00,0.00,VWS V14.00,2013-03-05 03:03:00,
2013-03-04 22:08:00,53.4,43.5,30.14,ESE,103,0.0,0.0,69,0.00,,CLR,0.00,0.00,VWS V14.00,2013-03-05 03:08:00,
2013-03-04 22:13:00,53.3,44.2,30.14,ESE,103,0.0,0.0,71,0.00,,CLR,0.00,0.00,VWS V14.00,2013-03-05 03:13:00,
2013-03-04 22:18:00,53.2,44.0,30.14,ESE,103,0.0,0.0,71,0.00,,CLR,0.00,0.00,VWS V14.00,2013-03-05 03:18:00,
2013-03-04 22:23:00,53.1,44.3,30.14,ESE,103,0.0,0.0,72,0.00,,CLR,0.00,0.00,VWS V14.00,2013-03-05 03:23:00,
2013-03-04 22:28:00,53.0,44.6,30.14,ESE,103,0.0,0.0,73,0.00,,CLR,0.00,0.00,VWS V14.00,2013-03-05 03:28:00,
2013-03-04 22:33:00,52.8,44.4,30.14,ESE,103,0.0,0.0,73,0.00,,CLR,0.00,0.00,VWS V14.00,2013-03-05 03:33:00,
2013-03-04 22:38:00,52.6,44.2,30.14,ESE,103,0.0,0.0,73,0.00,,CLR,0.00,0.00,VWS V14.00,2013-03-05 03:38:00,
2013-03-04 22:43:00,52.5,44.5,30.14,ESE,103,0.0,0.0,74,0.00,,CLR,0.00,0.00,VWS V14.00,2013-03-05 03:43:00,
2013-03-04 22:48:00,52.5,44.8,30.14,ESE,103,0.0,0.0,75,0.00,,CLR,0.00,0.00,VWS V14.00,2013-03-05 03:48:00,
2013-03-04 22:53:00,52.4,45.1,30.14,ESE,103,0.0,0.0,76,0.00,,CLR,0.00,0.00,VWS V14.00,2013-03-05 03:53:00,
2013-03-04 22:58:00,52.2,44.5,30.14,ESE,103,0.0,0.0,75,0.00,,CLR,0.00,0.00,VWS V14.00,2013-03-05 03:58:00,
2013-03-04 23:03:00,52.1,44.8,30.14,ESE,103,0.0,0.0,76,0.00,,CLR,0.00,0.00,VWS V14.00,2013-03-05 04:03:00,
2013-03-04 23:08:00,52.2,45.2,30.14,ESE,103,0.0,0.0,77,0.00,,CLR,0.00,0.00,VWS V14.00,2013-03-05 04:08:00,
2013-03-04 23:13:00,52.0,45.0,30.13,ESE,103,0.0,0.0,77,0.00,,CLR,0.00,0.00,VWS V14.00,2013-03-05 04:13:00,
2013-03-04 23:18:00,51.8,44.8,30.13,ESE,103,0.0,0.0,77,0.00,,CLR,0.00,0.00,VWS V14.00,2013-03-05 04:18:00,
2013-03-04 23:23:00,51.6,45.0,30.13,ESE,103,0.0,0.0,78,0.00,,CLR,0.00,0.00,VWS V14.00,2013-03-05 04:23:00,
2013-03-04 23:28:00,51.3,44.3,30.13,ESE,103,0.0,1.0,77,0.00,,CLR,0.00,0.00,VWS V14.00,2013-03-05 04:28:00,
2013-03-04 23:33:00,51.0,44.4,30.13,ESE,103,0.0,0.0,78,0.00,,CLR,0.00,0.00,VWS V14.00,2013-03-05 04:33:00,
2013-03-04 23:38:00,50.8,44.2,30.13,ESE,103,0.0,0.0,78,0.00,,CLR,0.00,0.00,VWS V14.00,2013-03-05 04:38:00,
2013-03-04 23:43:00,50.6,44.3,30.13,ESE,103,0.0,0.0,79,0.00,,CLR,0.00,0.00,VWS V14.00,2013-03-05 04:43:00,
2013-03-04 23:48:00,50.8,45.2,30.13,ESE,103,0.0,0.0,81,0.00,,CLR,0.00,0.00,VWS V14.00,2013-03-05 04:48:00,
2013-03-04 23:53:00,50.8,45.5,30.14,ESE,103,0.0,0.0,82,0.00,,CLR,0.00,0.00,VWS V14.00,2013-03-05 04:53:00,
2013-03-04 23:58:00,50.9,45.6,30.14,ESE,103,0.0,0.0,82,0.00,,CLR,0.00,0.00,VWS V14.00,2013-03-05 04:58:00,